Time;durP1;ratioP1;P1;durP2;ratioP2;P2;SDS_P1;SDS_P2;PMS_P1;PMS_P2;Temp;Humidity;BMP_temperature;BMP_pressure;BME280_temperature;BME280_humidity;BME280_pressure;Samples;Min_cycle;Max_cycle;Signal;HPM_P1;HPM_P2
2022/08/23 00:01:58;;;;;;;6.38;3.15;;;17.50;99.90;;;;;;4938313;29;20105;-77
2022/08/23 00:04:27;;;;;;;10.10;4.00;;;17.40;99.90;;;;;;4955460;29;20043;-77
2022/08/23 00:06:54;;;;;;;8.65;3.42;;;17.40;99.90;;;;;;4954905;28;20074;-77
2022/08/23 00:09:21;;;;;;;6.85;3.72;;;17.40;99.90;;;;;;4938050;29;20502;-77
2022/08/23 00:12:10;;;;;;;10.35;4.93;;;17.40;99.90;;;;;;4938029;29;20443;-77
2022/08/23 00:14:38;;;;;;;7.35;4.95;;;17.40;99.90;;;;;;4954565;29;20102;-77
2022/08/23 00:17:06;;;;;;;8.02;4.72;;;17.50;99.90;;;;;;4938083;29;20372;-77
2022/08/23 00:19:31;;;;;;;9.32;4.40;;;17.50;99.90;;;;;;4938149;29;20415;-77
2022/08/23 00:21:57;;;;;;;11.57;5.55;;;17.50;99.90;;;;;;4937892;29;20047;-77
2022/08/23 00:24:24;;;;;;;8.60;4.50;;;17.50;99.90;;;;;;4937841;29;20130;-77
2022/08/23 00:27:06;;;;;;;7.85;4.43;;;17.50;99.90;;;;;;4938633;29;20051;-77
2022/08/23 00:29:46;;;;;;;11.32;4.65;;;17.60;99.90;;;;;;4941967;29;20134;-76
2022/08/23 00:32:15;;;;;;;12.57;5.78;;;17.60;99.90;;;;;;4941705;29;20057;-76
2022/08/23 00:34:41;;;;;;;13.02;4.18;;;17.50;99.90;;;;;;4958850;28;20043;-76
2022/08/23 00:37:09;;;;;;;11.10;4.85;;;17.60;99.90;;;;;;4958799;29;20046;-76
2022/08/23 00:39:34;;;;;;;8.73;4.43;;;17.60;99.90;;;;;;4941780;29;20046;-76
2022/08/23 00:47:56;;;;;;;8.43;5.10;;;17.50;99.90;;;;;;4941113;29;20061;-76
2022/08/23 00:50:33;;;;;;;8.63;4.90;;;17.50;99.90;;;;;;4958491;28;20142;-76
2022/08/23 00:53:11;;;;;;;10.73;4.68;;;17.60;99.90;;;;;;4941064;29;20175;-76
2022/08/23 00:55:40;;;;;;;8.93;4.65;;;17.60;99.90;;;;;;4958527;29;20050;-76
2022/08/23 00:58:07;;;;;;;12.43;5.05;;;17.60;99.90;;;;;;4958372;29;20046;-76
2022/08/23 01:00:34;;;;;;;8.88;5.10;;;17.60;99.90;;;;;;4941186;29;20082;-76
2022/08/23 01:03:01;;;;;;;12.25;5.50;;;17.60;99.90;;;;;;4958259;29;20426;-76
2022/08/23 01:05:35;;;;;;;9.73;5.95;;;17.60;99.90;;;;;;4940688;29;20066;-76
2022/08/23 01:08:00;;;;;;;9.68;5.47;;;17.60;99.90;;;;;;4940979;29;20506;-76
2022/08/23 01:10:40;;;;;;;11.77;5.50;;;17.60;99.90;;;;;;4958178;29;20183;-76
2022/08/23 01:13:13;;;;;;;9.40;5.82;;;17.50;99.90;;;;;;4940930;29;20130;-76
2022/08/23 01:15:46;;;;;;;9.13;5.38;;;17.50;99.90;;;;;;4958152;29;20047;-76
2022/08/23 01:18:15;;;;;;;11.35;5.90;;;17.50;99.90;;;;;;4958116;29;20047;-76
2022/08/23 01:20:57;;;;;;;11.38;5.57;;;17.50;99.90;;;;;;4940548;29;20046;-76
2022/08/23 01:23:39;;;;;;;13.07;6.00;;;17.50;99.90;;;;;;4958077;29;20479;-76
2022/08/23 01:26:05;;;;;;;14.43;5.78;;;17.50;99.90;;;;;;4957815;28;20043;-76
2022/08/23 01:28:32;;;;;;;9.88;5.88;;;17.40;99.90;;;;;;4940803;29;20122;-76
2022/08/23 01:30:58;;;;;;;11.05;5.68;;;17.40;99.90;;;;;;4940478;29;20051;-76
2022/08/23 01:33:27;;;;;;;12.63;5.80;;;17.30;99.90;;;;;;4957841;28;20047;-76
2022/08/23 01:35:56;;;;;;;10.57;6.05;;;17.40;99.90;;;;;;4957718;28;20134;-76
2022/08/23 01:38:23;;;;;;;10.73;5.40;;;17.30;99.90;;;;;;4956441;28;20396;-76
2022/08/23 01:40:50;;;;;;;6.57;5.28;;;17.30;99.90;;;;;;4940479;29;20051;-76
2022/08/23 01:43:18;;;;;;;9.20;5.90;;;17.30;99.90;;;;;;4940543;29;20055;-77
2022/08/23 01:45:44;;;;;;;9.48;5.38;;;17.20;99.90;;;;;;4940444;29;20046;-77
2022/08/23 01:48:10;;;;;;;12.13;6.20;;;17.20;99.90;;;;;;4940623;29;20495;-76
2022/08/23 01:50:37;;;;;;;9.98;5.47;;;17.20;99.90;;;;;;4957503;29;20074;-76
2022/08/23 01:53:03;;;;;;;11.70;6.57;;;17.20;99.90;;;;;;4957362;29;20093;-76
2022/08/23 01:55:29;;;;;;;12.27;6.53;;;17.20;99.90;;;;;;4940061;29;20075;-76
2022/08/23 01:57:59;;;;;;;10.23;6.40;;;17.20;99.90;;;;;;4939972;29;20417;-76
2022/08/23 02:00:32;;;;;;;11.20;6.75;;;17.20;99.90;;;;;;4940028;29;20098;-76
2022/08/23 02:02:59;;;;;;;10.23;5.65;;;17.20;99.90;;;;;;4957453;29;20058;-76
2022/08/23 02:05:26;;;;;;;12.07;5.72;;;17.10;99.90;;;;;;4939832;28;20063;-76
2022/08/23 02:07:52;;;;;;;12.27;6.65;;;17.10;99.90;;;;;;4939737;29;20062;-76
2022/08/23 02:10:18;;;;;;;13.00;7.10;;;17.10;99.90;;;;;;4939999;29;20082;-76
2022/08/23 02:12:45;;;;;;;10.85;6.10;;;17.10;99.90;;;;;;4940043;29;20055;-76
2022/08/23 02:15:12;;;;;;;9.65;6.25;;;17.10;99.90;;;;;;4956924;28;20403;-76
2022/08/23 02:17:38;;;;;;;16.77;7.10;;;17.10;99.90;;;;;;4939550;29;20047;-77
2022/08/23 02:20:05;;;;;;;9.88;6.50;;;17.10;99.90;;;;;;4939968;28;20058;-77
2022/08/23 02:22:32;;;;;;;14.18;7.25;;;17.10;99.90;;;;;;4939645;29;20046;-77
2022/08/23 02:24:58;;;;;;;12.18;7.28;;;17.10;99.90;;;;;;4956885;29;20058;-76
2022/08/23 02:27:23;;;;;;;11.75;6.97;;;17.10;99.90;;;;;;4939427;29;20051;-76
2022/08/23 02:29:49;;;;;;;10.80;7.03;;;17.00;99.90;;;;;;4956620;28;20039;-76
2022/08/23 02:32:16;;;;;;;12.07;7.20;;;17.00;99.90;;;;;;4956743;28;20502;-76
2022/08/23 02:34:43;;;;;;;12.95;7.72;;;17.00;99.90;;;;;;4956593;29;20051;-77
2022/08/23 02:37:11;;;;;;;11.77;7.75;;;17.00;99.90;;;;;;4939648;29;20051;-77
2022/08/23 02:39:37;;;;;;;9.90;7.05;;;17.00;99.90;;;;;;4956428;29;20058;-76
2022/08/23 02:42:03;;;;;;;12.98;7.78;;;17.00;99.90;;;;;;4939445;29;20189;-76
2022/08/23 02:44:30;;;;;;;13.27;8.68;;;16.90;99.90;;;;;;4939003;29;20506;-76
2022/08/23 02:46:56;;;;;;;12.90;8.27;;;16.90;99.90;;;;;;4956350;29;20048;-77
2022/08/23 02:49:21;;;;;;;13.07;8.38;;;16.90;99.90;;;;;;4938983;28;20043;-77
2022/08/23 02:51:47;;;;;;;13.57;8.75;;;16.90;99.90;;;;;;4939018;29;20043;-76
2022/08/23 02:54:13;;;;;;;13.55;8.90;;;16.90;99.90;;;;;;4956321;29;20122;-76
2022/08/23 02:56:39;;;;;;;15.13;9.00;;;16.90;99.90;;;;;;4939211;29;20043;-76
2022/08/23 02:59:05;;;;;;;13.80;8.55;;;16.90;99.90;;;;;;4939012;29;20047;-76
2022/08/23 03:01:34;;;;;;;19.95;8.98;;;16.90;99.90;;;;;;4956188;29;20079;-76
2022/08/23 03:04:01;;;;;;;11.48;8.30;;;16.80;99.90;;;;;;4938958;28;20051;-76
2022/08/23 03:06:27;;;;;;;14.95;8.60;;;16.80;99.90;;;;;;4938468;29;20098;-77
2022/08/23 03:08:55;;;;;;;14.23;9.02;;;16.80;99.90;;;;;;4955997;28;20059;-76
2022/08/23 03:11:22;;;;;;;13.32;8.45;;;16.80;99.90;;;;;;4955950;29;20432;-77
2022/08/23 03:13:49;;;;;;;11.43;8.20;;;16.70;99.90;;;;;;4938488;29;20051;-76
2022/08/23 03:16:15;;;;;;;10.68;8.63;;;16.70;99.90;;;;;;4955947;28;20046;-76
2022/08/23 03:18:41;;;;;;;11.93;8.85;;;16.70;99.90;;;;;;4955918;29;20074;-76
2022/08/23 03:21:08;;;;;;;13.85;9.68;;;16.70;99.90;;;;;;4955884;29;20039;-76
2022/08/23 03:23:36;;;;;;;12.15;8.85;;;16.60;99.90;;;;;;4955833;28;20094;-76
2022/08/23 03:26:04;;;;;;;19.08;9.63;;;16.70;99.90;;;;;;4955761;28;20075;-76
2022/08/23 03:28:31;;;;;;;16.23;10.10;;;16.70;99.90;;;;;;4955812;29;20054;-76
2022/08/23 03:30:57;;;;;;;18.45;9.43;;;16.60;99.90;;;;;;4955674;29;20043;-76
2022/08/23 03:33:23;;;;;;;18.85;10.10;;;16.50;99.90;;;;;;4956331;28;20051;-76
2022/08/23 03:35:49;;;;;;;13.40;10.10;;;16.60;99.90;;;;;;4938424;29;20057;-77
2022/08/23 03:38:15;;;;;;;15.70;10.32;;;16.60;99.90;;;;;;4955387;29;20078;-76
2022/08/23 03:40:42;;;;;;;16.50;10.65;;;16.50;99.90;;;;;;4938633;29;20047;-76
2022/08/23 03:43:08;;;;;;;16.25;10.63;;;16.50;99.90;;;;;;4938600;29;20479;-76
2022/08/23 03:45:35;;;;;;;13.32;10.50;;;16.50;99.90;;;;;;4938313;29;20055;-76
2022/08/23 03:48:01;;;;;;;14.63;10.60;;;16.50;99.90;;;;;;4939159;29;20503;-76
2022/08/23 03:50:27;;;;;;;14.23;9.80;;;16.40;99.90;;;;;;4955598;28;20046;-77
2022/08/23 03:52:52;;;;;;;14.77;10.10;;;16.40;99.90;;;;;;4938151;29;20518;-76
2022/08/23 03:55:18;;;;;;;19.02;10.25;;;16.40;99.90;;;;;;4938344;29;20550;-76
2022/08/23 03:57:44;;;;;;;12.73;9.98;;;16.30;99.90;;;;;;4938273;29;20051;-76
2022/08/23 04:00:12;;;;;;;14.32;9.95;;;16.30;99.90;;;;;;4955431;29;20487;-76
2022/08/23 04:02:38;;;;;;;12.20;9.80;;;16.30;99.90;;;;;;4940400;29;20054;-76
2022/08/23 04:05:05;;;;;;;15.18;10.50;;;16.20;99.90;;;;;;4959194;28;20059;-77
2022/08/23 04:07:30;;;;;;;14.93;9.88;;;16.20;99.90;;;;;;4959463;29;20059;-77
2022/08/23 04:09:56;;;;;;;14.68;10.48;;;16.20;99.90;;;;;;4959187;28;20130;-76
2022/08/23 04:12:22;;;;;;;14.27;10.20;;;16.20;99.90;;;;;;4959253;29;20048;-77
2022/08/23 04:14:48;;;;;;;13.73;10.15;;;16.20;99.90;;;;;;4959217;29;20114;-77
2022/08/23 04:17:16;;;;;;;16.15;11.57;;;16.20;99.90;;;;;;4959081;28;20090;-77
2022/08/23 04:19:42;;;;;;;17.38;11.38;;;16.10;99.90;;;;;;4958960;28;20075;-77
2022/08/23 04:22:14;;;;;;;16.25;11.52;;;16.20;99.90;;;;;;4958707;29;20075;-77
2022/08/23 04:24:41;;;;;;;17.15;11.40;;;16.20;99.90;;;;;;4958495;29;20047;-77
2022/08/23 04:27:07;;;;;;;13.25;10.32;;;16.20;99.90;;;;;;4940757;29;20049;-77
2022/08/23 04:29:34;;;;;;;17.38;11.43;;;16.20;99.90;;;;;;4958836;29;20113;-77
2022/08/23 04:32:01;;;;;;;15.60;11.38;;;16.20;99.90;;;;;;4941464;29;20053;-77
2022/08/23 04:34:27;;;;;;;19.35;12.68;;;16.20;99.90;;;;;;4941673;29;20130;-77
2022/08/23 04:36:52;;;;;;;16.40;11.90;;;16.20;99.90;;;;;;4958507;29;20475;-77
2022/08/23 04:39:18;;;;;;;16.42;11.50;;;16.20;99.90;;;;;;4958454;28;20035;-76
2022/08/23 04:44:28;;;;;;;18.73;12.95;;;16.20;99.90;;;;;;4958440;29;20486;-77
2022/08/23 04:46:54;;;;;;;15.40;12.27;;;16.20;99.90;;;;;;4941099;29;20106;-77
2022/08/23 04:49:22;;;;;;;17.63;11.23;;;16.20;99.90;;;;;;4941154;29;20100;-77
2022/08/23 04:51:48;;;;;;;19.38;12.45;;;16.20;99.90;;;;;;4958283;29;20122;-77
2022/08/23 04:54:14;;;;;;;16.65;12.02;;;16.10;99.90;;;;;;4941401;29;20061;-77
2022/08/23 04:56:41;;;;;;;18.02;12.18;;;16.10;99.90;;;;;;4940965;29;20515;-76
2022/08/23 04:59:07;;;;;;;17.08;13.55;;;16.10;99.90;;;;;;4958091;29;20047;-76
2022/08/23 05:01:34;;;;;;;16.88;12.93;;;16.20;99.90;;;;;;4958272;29;20118;-79
2022/08/23 05:04:01;;;;;;;17.38;12.15;;;16.20;99.90;;;;;;4941246;29;20055;-79
2022/08/23 05:06:27;;;;;;;17.55;12.85;;;16.10;99.90;;;;;;4940617;29;20106;-78
2022/08/23 05:08:54;;;;;;;14.30;11.32;;;16.20;99.90;;;;;;4940995;29;20121;-78
2022/08/23 05:11:20;;;;;;;16.35;12.02;;;16.20;99.90;;;;;;4958112;29;20054;-76
2022/08/23 05:13:46;;;;;;;17.88;12.77;;;16.20;99.90;;;;;;4940481;29;20558;-75
2022/08/23 05:16:12;;;;;;;16.63;12.05;;;16.20;99.90;;;;;;4958031;29;20035;-76
2022/08/23 05:18:39;;;;;;;15.35;12.48;;;16.20;99.90;;;;;;4940637;29;20051;-76
2022/08/23 05:21:05;;;;;;;17.15;13.13;;;16.30;99.90;;;;;;4958093;29;20039;-76
2022/08/23 05:23:30;;;;;;;14.43;12.10;;;16.30;99.90;;;;;;4940746;29;20063;-76
2022/08/23 05:25:57;;;;;;;18.90;12.85;;;16.30;99.90;;;;;;4942354;29;20160;-75
2022/08/23 05:28:31;;;;;;;16.10;13.70;;;16.30;99.90;;;;;;4910428;29;20115;-75
2022/08/23 05:31:02;;;;;;;15.60;12.60;;;16.40;99.90;;;;;;4919516;29;20048;-76
2022/08/23 05:33:30;;;;;;;19.02;13.40;;;16.40;99.90;;;;;;4902289;29;20058;-75
2022/08/23 05:35:57;;;;;;;18.42;12.77;;;16.40;99.90;;;;;;4919312;29;20062;-76
2022/08/23 05:38:23;;;;;;;17.58;13.82;;;16.50;99.90;;;;;;4919320;29;20058;-75
2022/08/23 05:40:53;;;;;;;17.95;13.25;;;16.60;99.90;;;;;;4902324;29;20043;-75
2022/08/23 05:43:19;;;;;;;17.40;12.35;;;16.60;99.90;;;;;;4902345;29;20052;-75
2022/08/23 05:45:45;;;;;;;19.50;14.93;;;16.70;99.90;;;;;;4901975;29;20048;-75
2022/08/23 05:48:12;;;;;;;17.20;14.20;;;16.80;99.90;;;;;;4901933;29;20052;-75
2022/08/23 05:50:39;;;;;;;19.80;14.73;;;16.80;99.90;;;;;;4919135;29;20040;-75
2022/08/23 05:53:06;;;;;;;18.88;15.35;;;17.00;99.90;;;;;;4919040;29;20063;-77
2022/08/23 05:55:32;;;;;;;22.35;15.60;;;17.10;99.90;;;;;;4919262;29;20145;-76
2022/08/23 05:57:58;;;;;;;20.25;16.20;;;17.20;99.90;;;;;;4919024;29;20048;-79
2022/08/23 06:00:24;;;;;;;17.50;15.40;;;17.20;99.90;;;;;;4901979;29;20056;-76
2022/08/23 06:02:50;;;;;;;20.05;14.57;;;17.30;99.90;;;;;;4919068;29;20117;-76
2022/08/23 06:05:16;;;;;;;19.20;15.07;;;17.20;99.90;;;;;;4918810;29;20415;-76
2022/08/23 06:07:42;;;;;;;19.73;16.05;;;17.30;99.90;;;;;;4918992;29;20060;-76
2022/08/23 06:10:08;;;;;;;21.15;16.08;;;17.30;99.90;;;;;;4918961;29;20044;-76
2022/08/23 06:12:34;;;;;;;19.25;16.42;;;17.40;99.90;;;;;;4918612;29;20496;-76
2022/08/23 06:15:00;;;;;;;22.15;17.25;;;17.50;99.90;;;;;;4901744;29;20051;-76
2022/08/23 06:17:27;;;;;;;18.05;16.15;;;17.60;99.90;;;;;;4901664;29;20059;-76
2022/08/23 06:19:52;;;;;;;23.77;16.23;;;17.80;99.90;;;;;;4918774;29;20115;-76
2022/08/23 06:22:18;;;;;;;19.73;16.05;;;18.00;99.90;;;;;;4918670;29;20564;-76
2022/08/23 06:24:44;;;;;;;18.30;15.93;;;18.10;99.90;;;;;;4900922;29;20044;-76
2022/08/23 06:27:10;;;;;;;20.65;16.58;;;18.30;99.90;;;;;;4918436;29;20127;-76
2022/08/23 06:29:37;;;;;;;22.75;16.02;;;18.40;99.90;;;;;;4918420;29;20099;-76
2022/08/23 06:32:03;;;;;;;18.35;15.38;;;18.60;99.90;;;;;;4918423;29;20063;-76
2022/08/23 06:34:34;;;;;;;16.48;14.73;;;18.80;99.90;;;;;;4901538;29;20514;-76
2022/08/23 06:37:06;;;;;;;16.95;15.25;;;18.90;99.90;;;;;;4918528;29;20048;-76
2022/08/23 06:39:33;;;;;;;19.00;14.73;;;19.10;99.90;;;;;;4918534;29;20059;-76
2022/08/23 06:42:07;;;;;;;17.25;14.73;;;19.20;99.90;;;;;;4918370;29;20051;-76
2022/08/23 06:44:34;;;;;;;16.92;14.55;;;19.40;99.90;;;;;;4918119;29;20055;-76
2022/08/23 06:47:00;;;;;;;15.55;13.65;;;19.50;99.90;;;;;;4918239;29;20056;-76
2022/08/23 06:49:27;;;;;;;15.18;13.10;;;19.60;99.90;;;;;;4918286;29;20044;-76
2022/08/23 06:51:55;;;;;;;15.43;13.05;;;19.80;99.90;;;;;;4918264;29;20054;-76
2022/08/23 06:54:23;;;;;;;14.40;12.90;;;19.90;99.90;;;;;;4918012;29;20044;-76
2022/08/23 06:56:50;;;;;;;13.80;12.25;;;20.10;99.90;;;;;;4901162;29;20127;-76
2022/08/23 06:59:17;;;;;;;16.20;12.57;;;20.20;99.90;;;;;;4917808;29;20051;-76
2022/08/23 07:01:49;;;;;;;15.25;11.30;;;20.30;99.90;;;;;;4917826;29;20420;-76
2022/08/23 07:04:28;;;;;;;13.33;11.40;;;20.40;99.90;;;;;;4900829;29;20040;-76
2022/08/23 07:06:54;;;;;;;14.63;11.00;;;20.60;99.90;;;;;;4917575;29;20142;-76
2022/08/23 07:09:20;;;;;;;14.13;10.93;;;20.70;99.90;;;;;;4901339;29;20055;-76
2022/08/23 07:11:46;;;;;;;13.05;10.90;;;20.80;99.90;;;;;;4917596;29;20040;-76
2022/08/23 07:14:19;;;;;;;10.95;9.43;;;20.90;99.90;;;;;;4917541;29;20095;-76
2022/08/23 07:16:51;;;;;;;16.48;10.32;;;21.10;99.90;;;;;;4900859;29;20047;-76
2022/08/23 07:19:19;;;;;;;11.73;10.30;;;21.20;99.90;;;;;;4917780;29;20520;-76
2022/08/23 07:21:45;;;;;;;12.95;9.48;;;21.30;99.90;;;;;;4917555;29;20448;-76
2022/08/23 07:24:12;;;;;;;10.93;8.90;;;21.40;99.90;;;;;;4917631;29;20091;-76
2022/08/23 07:26:39;;;;;;;11.82;10.00;;;21.50;99.90;;;;;;4917356;29;20412;-76
2022/08/23 07:29:06;;;;;;;11.68;9.60;;;21.60;99.90;;;;;;4917674;29;20040;-76
2022/08/23 07:31:34;;;;;;;13.75;8.98;;;21.80;99.90;;;;;;4917694;29;20044;-76
2022/08/23 07:34:02;;;;;;;11.13;8.80;;;21.80;99.90;;;;;;4917443;29;20123;-76
2022/08/23 07:36:30;;;;;;;12.18;9.55;;;21.90;99.90;;;;;;4899619;29;20044;-76
2022/08/23 07:38:56;;;;;;;12.98;9.50;;;22.00;99.90;;;;;;4900567;29;20161;-76
2022/08/23 07:41:24;;;;;;;15.75;11.68;;;22.10;99.90;;;;;;4917474;29;20047;-76
2022/08/23 07:43:50;;;;;;;13.90;11.05;;;22.30;99.90;;;;;;4917531;29;20052;-76
2022/08/23 07:46:16;;;;;;;10.70;9.55;;;22.40;99.90;;;;;;4917376;29;20190;-76
2022/08/23 07:48:42;;;;;;;13.30;10.13;;;22.50;99.90;;;;;;4917476;29;20059;-76
2022/08/23 07:51:11;;;;;;;11.57;10.07;;;22.60;99.90;;;;;;4900482;29;20040;-76
2022/08/23 07:53:38;;;;;;;11.50;10.10;;;22.60;99.90;;;;;;4917088;29;20400;-76
2022/08/23 07:56:08;;;;;;;13.35;11.77;;;22.70;99.90;;;;;;4917136;29;20563;-76
2022/08/23 07:58:33;;;;;;;11.07;9.98;;;22.70;99.90;;;;;;4900482;29;20083;-76
2022/08/23 08:01:11;;;;;;;10.32;9.25;;;22.70;99.90;;;;;;4900177;29;20091;-76
2022/08/23 08:03:38;;;;;;;11.05;9.95;;;22.60;99.90;;;;;;4916965;29;20616;-77
2022/08/23 08:06:20;;;;;;;11.18;9.35;;;22.70;99.90;;;;;;4896696;29;20140;-77
2022/08/23 08:08:47;;;;;;;8.73;7.72;;;22.90;99.90;;;;;;4897026;29;20103;-76
2022/08/23 08:11:15;;;;;;;17.20;12.75;;;23.10;99.90;;;;;;4896936;29;20040;-76
2022/08/23 08:13:42;;;;;;;11.95;9.30;;;23.10;99.90;;;;;;4898408;29;20055;-77
2022/08/23 08:16:10;;;;;;;12.75;9.73;;;23.30;99.90;;;;;;4896826;29;20044;-76
2022/08/23 08:18:36;;;;;;;10.80;7.78;;;23.30;99.90;;;;;;4898297;29;20044;-76
2022/08/23 08:21:03;;;;;;;15.40;9.98;;;23.50;99.90;;;;;;4898345;29;20075;-76
2022/08/23 08:23:29;;;;;;;9.40;8.38;;;23.60;99.90;;;;;;4896797;29;20057;-76
2022/08/23 08:26:04;;;;;;;11.80;8.02;;;23.70;99.90;;;;;;4898162;29;20051;-77
2022/08/23 08:28:30;;;;;;;15.10;9.50;;;23.70;99.90;;;;;;4898007;29;20432;-76
2022/08/23 08:30:57;;;;;;;10.65;8.07;;;23.80;99.90;;;;;;4896691;29;20493;-76
2022/08/23 08:33:24;;;;;;;10.57;7.68;;;23.90;99.90;;;;;;4896965;29;20063;-76
2022/08/23 08:35:50;;;;;;;10.88;7.18;;;24.00;99.90;;;;;;4896700;29;20397;-77
2022/08/23 08:38:16;;;;;;;9.85;7.63;;;24.10;99.90;;;;;;4898053;29;20076;-76
2022/08/23 08:40:42;;;;;;;10.38;9.20;;;24.20;99.90;;;;;;4896772;29;20102;-76
2022/08/23 08:43:31;;;;;;;12.05;8.85;;;24.20;99.90;;;;;;4896905;29;20052;-76
2022/08/23 08:46:12;;;;;;;12.15;7.03;;;24.30;99.90;;;;;;4896631;29;20052;-76
2022/08/23 08:48:47;;;;;;;12.48;7.95;;;24.40;99.90;;;;;;4899972;29;20044;-76
2022/08/23 08:51:42;;;;;;;10.23;8.25;;;24.40;99.90;;;;;;4901377;29;20501;-77
2022/08/23 08:54:11;;;;;;;10.13;7.10;;;24.20;99.90;;;;;;4901438;29;20064;-77
2022/08/23 08:56:39;;;;;;;9.10;7.72;;;24.30;99.90;;;;;;4901128;29;20049;-76
2022/08/23 08:59:18;;;;;;;10.15;8.43;;;24.50;99.90;;;;;;4899923;29;20040;-76
2022/08/23 09:01:44;;;;;;;11.00;9.38;;;24.60;99.90;;;;;;4901065;29;20442;-77
2022/08/23 09:04:10;;;;;;;10.38;8.50;;;24.50;99.90;;;;;;4899797;29;20052;-76
2022/08/23 09:06:52;;;;;;;10.75;8.25;;;24.40;99.90;;;;;;4915536;29;20059;-76
2022/08/23 09:09:34;;;;;;;13.27;7.23;;;24.60;99.90;;;;;;4902978;29;20044;-76
2022/08/23 09:12:15;;;;;;;11.05;7.85;;;24.80;99.90;;;;;;4920107;29;20077;-76
2022/08/23 09:14:57;;;;;;;8.70;7.03;;;25.00;99.90;;;;;;4903044;29;20060;-76
2022/08/23 09:17:42;;;;;;;8.00;7.20;;;25.00;99.90;;;;;;4919966;29;20051;-77
2022/08/23 09:20:12;;;;;;;8.77;7.43;;;25.00;99.90;;;;;;4919940;29;20048;-76
2022/08/23 09:22:39;;;;;;;8.23;6.15;;;25.00;99.90;;;;;;4919700;29;20052;-76
2022/08/23 09:25:10;;;;;;;9.05;6.05;;;25.10;99.90;;;;;;4919607;29;20048;-77
2022/08/23 09:27:43;;;;;;;23.02;10.82;;;25.10;99.90;;;;;;4902523;29;20090;-77
2022/08/23 09:30:13;;;;;;;8.80;6.80;;;25.10;99.90;;;;;;4919686;29;20043;-76
2022/08/23 09:32:42;;;;;;;9.60;7.20;;;25.10;99.90;;;;;;4919465;29;20048;-76
2022/08/23 09:35:10;;;;;;;9.70;5.90;;;25.10;99.90;;;;;;4902825;29;20131;-76
2022/08/23 09:38:23;;;;;;;7.10;5.00;;;25.30;99.90;;;;;;4902354;29;20055;-77
2022/08/23 09:40:50;;;;;;;9.57;6.50;;;25.40;99.90;;;;;;4824418;29;20125;-76
2022/08/23 09:43:18;;;;;;;9.98;5.80;;;25.50;99.90;;;;;;4900296;29;20107;-77
2022/08/23 09:45:47;;;;;;;9.63;5.38;;;25.50;99.90;;;;;;4919414;29;20059;-77
2022/08/23 09:48:14;;;;;;;10.25;5.25;;;25.60;99.90;;;;;;4902216;29;20066;-77
2022/08/23 09:50:54;;;;;;;8.80;5.85;;;25.80;99.90;;;;;;4902666;29;20051;-76
2022/08/23 09:53:28;;;;;;;6.20;5.00;;;25.90;99.90;;;;;;4919226;29;20055;-76
2022/08/23 09:55:57;;;;;;;8.60;6.43;;;26.10;99.90;;;;;;4902061;29;20063;-77
2022/08/23 09:58:31;;;;;;;7.55;5.22;;;26.20;99.90;;;;;;4902317;29;20086;-77
2022/08/23 10:01:27;;;;;;;8.18;5.75;;;26.30;99.90;;;;;;4918267;29;20052;-77
2022/08/23 10:04:11;;;;;;;7.82;6.15;;;26.60;99.90;;;;;;4902336;29;20127;-76
2022/08/23 10:06:37;;;;;;;7.47;4.10;;;26.80;99.90;;;;;;4918616;29;20060;-77
2022/08/23 10:09:05;;;;;;;8.55;4.40;;;27.00;99.90;;;;;;4919095;29;20048;-77
2022/08/23 10:11:37;;;;;;;11.13;4.35;;;27.10;99.90;;;;;;4902010;29;20060;-76
2022/08/23 10:14:03;;;;;;;7.35;4.00;;;27.10;99.90;;;;;;4918898;29;20052;-77
2022/08/23 10:17:00;;;;;;;9.55;4.10;;;27.20;99.90;;;;;;4901903;29;20047;-76
2022/08/23 10:19:52;;;;;;;6.85;4.25;;;27.10;99.90;;;;;;4901937;29;20567;-77
2022/08/23 10:22:26;;;;;;;8.50;3.20;;;27.20;99.90;;;;;;4873367;29;20091;-77
2022/08/23 10:25:18;;;;;;;5.22;3.63;;;27.30;99.90;;;;;;4901706;29;20303;-77
2022/08/23 10:30:55;;;;;;;5.72;3.30;;;27.50;99.90;;;;;;4918636;29;20147;-77
2022/08/23 10:33:30;;;;;;;5.55;3.33;;;27.40;99.90;;;;;;4918448;29;20044;-77
2022/08/23 10:36:17;;;;;;;8.50;3.15;;;27.50;99.90;;;;;;4918519;29;20083;-77
2022/08/23 10:38:56;;;;;;;5.30;3.40;;;27.50;99.90;;;;;;4901367;29;20060;-77
2022/08/23 10:41:53;;;;;;;5.90;3.50;;;27.50;99.90;;;;;;4918385;29;20084;-77
2022/08/23 10:44:24;;;;;;;5.93;3.78;;;27.60;99.90;;;;;;4918238;29;20242;-77
2022/08/23 10:47:12;;;;;;;6.90;4.15;;;27.70;99.90;;;;;;4918297;29;20126;-77
2022/08/23 10:49:40;;;;;;;8.13;4.13;;;27.80;99.90;;;;;;4918312;29;20052;-77
2022/08/23 10:52:09;;;;;;;6.30;4.15;;;27.80;99.90;;;;;;4901196;29;20103;-77
2022/08/23 10:54:46;;;;;;;8.02;4.20;;;27.80;99.90;;;;;;4901405;29;20058;-77
2022/08/23 10:57:16;;;;;;;7.15;4.47;;;27.90;99.90;;;;;;4901176;29;20056;-77
2022/08/23 10:59:44;;;;;;;7.60;5.38;;;27.90;99.90;;;;;;4901076;29;20536;-77
2022/08/23 11:02:35;;;;;;;7.90;5.10;;;28.00;99.90;;;;;;4901368;29;20106;-77
2022/08/23 11:05:18;;;;;;;9.32;5.13;;;28.20;99.90;;;;;;4900948;29;20048;-77
2022/08/23 11:08:14;;;;;;;6.78;4.35;;;28.30;99.90;;;;;;4900768;29;20493;-78
2022/08/23 11:10:47;;;;;;;7.28;3.78;;;28.40;99.90;;;;;;4887376;29;20412;-77
2022/08/23 11:13:16;;;;;;;6.93;3.55;;;28.50;99.90;;;;;;4917932;29;20483;-77
2022/08/23 11:15:44;;;;;;;6.07;3.72;;;28.50;99.90;;;;;;4900907;29;20484;-78
2022/08/23 11:18:32;;;;;;;6.47;3.97;;;28.70;99.90;;;;;;4917660;29;20044;-77
2022/08/23 11:21:16;;;;;;;5.55;4.13;;;28.80;99.90;;;;;;4900872;29;20047;-77
2022/08/23 11:23:46;;;;;;;7.80;3.78;;;28.80;99.90;;;;;;4900562;29;20056;-77
2022/08/23 11:26:21;;;;;;;6.55;4.22;;;28.70;99.90;;;;;;4900414;29;20048;-77
2022/08/23 11:28:49;;;;;;;7.28;3.60;;;28.70;99.90;;;;;;4917706;29;20108;-77
2022/08/23 11:31:18;;;;;;;6.50;3.28;;;28.60;99.90;;;;;;4900754;29;20050;-77
2022/08/23 11:34:09;;;;;;;8.30;3.70;;;28.60;99.90;;;;;;4917456;29;20048;-77
2022/08/23 11:36:36;;;;;;;8.60;3.20;;;28.90;99.90;;;;;;4887848;29;20064;-77
2022/08/23 11:39:12;;;;;;;6.05;3.30;;;29.10;99.90;;;;;;4917228;29;20388;-77
2022/08/23 11:41:53;;;;;;;7.38;3.30;;;29.20;99.90;;;;;;4917542;29;20107;-77
2022/08/23 11:44:45;;;;;;;5.38;3.22;;;29.30;99.90;;;;;;4917146;29;20531;-77
2022/08/23 11:47:11;;;;;;;9.07;3.88;;;29.40;99.90;;;;;;4916677;29;20056;-77
2022/08/23 11:50:09;;;;;;;7.05;3.63;;;29.40;99.90;;;;;;4900463;29;20063;-77
2022/08/23 11:53:14;;;;;;;6.45;3.05;;;29.20;99.70;;;;;;4900659;29;20500;-77
2022/08/23 11:55:54;;;;;;;7.55;3.80;;;29.30;99.90;;;;;;4917322;29;20040;-77
2022/08/23 11:58:43;;;;;;;6.72;3.55;;;29.30;99.70;;;;;;4900481;29;20377;-77
2022/08/23 12:01:11;;;;;;;6.95;4.00;;;29.70;99.90;;;;;;4900396;29;20147;-77
2022/08/23 12:03:55;;;;;;;7.53;3.20;;;29.70;99.90;;;;;;4917314;29;20059;-77
2022/08/23 12:06:21;;;;;;;5.63;3.75;;;29.80;99.90;;;;;;4900014;29;20071;-77
2022/08/23 12:09:02;;;;;;;5.65;3.22;;;29.70;99.10;;;;;;4900266;29;20404;-77
2022/08/23 12:11:56;;;;;;;5.47;3.40;;;29.70;99.90;;;;;;4900329;29;20052;-77
2022/08/23 12:14:30;;;;;;;6.90;3.20;;;29.80;98.70;;;;;;4900028;29;20075;-77
2022/08/23 12:17:11;;;;;;;8.05;3.58;;;29.80;98.50;;;;;;4917079;29;20166;-77
2022/08/23 12:19:52;;;;;;;6.05;3.10;;;29.80;98.00;;;;;;4917195;29;20044;-77
2022/08/23 12:22:25;;;;;;;5.40;3.30;;;29.80;98.60;;;;;;4916905;29;20144;-77
2022/08/23 12:25:04;;;;;;;6.03;3.75;;;29.80;97.90;;;;;;4903989;29;20055;-77
2022/08/23 12:27:47;;;;;;;7.38;3.38;;;29.80;98.80;;;;;;4920858;29;20131;-77
2022/08/23 12:30:27;;;;;;;8.68;3.30;;;29.70;97.70;;;;;;4903852;29;20056;-79
2022/08/23 12:33:03;;;;;;;6.65;3.15;;;29.60;98.10;;;;;;4920540;29;20048;-79
2022/08/23 12:35:57;;;;;;;6.15;3.60;;;29.50;98.90;;;;;;4920657;29;20040;-80
2022/08/23 12:38:55;;;;;;;9.38;6.80;;;29.40;97.90;;;;;;4903408;29;20052;-79
2022/08/23 12:41:30;;;;;;;8.88;5.78;;;29.10;99.90;;;;;;4920404;29;20056;-80
2022/08/23 12:44:08;;;;;;;8.25;4.75;;;29.00;99.90;;;;;;4920569;29;20139;-79
2022/08/23 12:46:38;;;;;;;7.60;5.13;;;28.90;99.90;;;;;;4920397;29;20040;-79
2022/08/23 12:49:06;;;;;;;11.50;6.50;;;28.80;99.90;;;;;;4920230;29;20504;-79
2022/08/23 12:51:37;;;;;;;10.77;7.50;;;28.80;99.90;;;;;;4903414;29;20047;-77
2022/08/23 12:54:15;;;;;;;10.57;8.18;;;28.80;99.90;;;;;;4920450;29;20131;-79
2022/08/23 12:56:46;;;;;;;13.60;10.00;;;28.90;99.90;;;;;;4920375;29;20099;-79
2022/08/23 12:59:24;;;;;;;12.13;9.85;;;28.70;99.90;;;;;;4920397;29;20057;-78
2022/08/23 13:01:50;;;;;;;13.27;10.23;;;28.60;99.90;;;;;;4920214;29;20048;-78
2022/08/23 13:04:16;;;;;;;11.77;9.82;;;28.50;99.90;;;;;;4903253;29;20052;-79
2022/08/23 13:06:46;;;;;;;12.27;11.07;;;28.50;99.90;;;;;;4919766;29;20467;-78
2022/08/23 13:09:23;;;;;;;13.13;11.13;;;28.50;99.90;;;;;;4919972;29;20534;-77